createdAt,value
2017-10-03T00:01:10.979Z,1.80
2017-10-03T00:03:37.587Z,1.63
2017-10-03T00:06:04.178Z,2.33
2017-10-03T00:08:30.763Z,2.17
2017-10-03T00:10:58.240Z,1.50
2017-10-03T00:13:24.852Z,1.67
2017-10-03T00:15:51.480Z,2.00
2017-10-03T00:18:18.088Z,2.10
2017-10-03T00:20:44.675Z,1.90
2017-10-03T00:23:11.276Z,2.20
2017-10-03T00:25:37.872Z,1.70
2017-10-03T00:28:04.510Z,2.00
2017-10-03T00:30:31.105Z,2.00
2017-10-03T00:32:57.708Z,2.00
2017-10-03T00:35:24.322Z,1.77
2017-10-03T00:37:50.942Z,1.83
2017-10-03T00:40:17.560Z,1.93
2017-10-03T00:42:44.183Z,2.00
2017-10-03T00:45:10.772Z,1.80
2017-10-03T00:47:37.392Z,1.73
2017-10-03T00:50:03.990Z,2.10
2017-10-03T00:52:30.604Z,1.60
2017-10-03T00:54:57.192Z,1.63
2017-10-03T00:57:23.779Z,1.63
2017-10-03T00:59:50.393Z,1.67
2017-10-03T01:02:16.979Z,1.90
2017-10-03T01:04:43.568Z,1.80
2017-10-03T01:07:10.171Z,1.87
2017-10-03T01:09:36.791Z,1.70
2017-10-03T01:12:03.400Z,1.57
2017-10-03T01:14:29.994Z,2.00
2017-10-03T01:16:56.575Z,1.80
2017-10-03T01:19:23.187Z,2.43
2017-10-03T01:21:49.781Z,1.90
2017-10-03T01:24:16.387Z,2.00
2017-10-03T01:26:43.026Z,2.07
2017-10-03T01:29:09.624Z,1.63
2017-10-03T01:31:36.244Z,1.80
2017-10-03T01:34:02.928Z,1.80
2017-10-03T01:36:29.540Z,1.40
2017-10-03T01:38:56.162Z,1.30
2017-10-03T01:41:22.757Z,1.40
2017-10-03T01:43:49.368Z,1.30
2017-10-03T01:46:15.999Z,1.47
2017-10-03T01:48:42.604Z,1.53
2017-10-03T01:51:09.209Z,1.27
2017-10-03T01:53:35.840Z,1.37
2017-10-03T01:56:02.443Z,1.87
2017-10-03T01:58:29.045Z,1.17
2017-10-03T02:00:55.661Z,2.07
2017-10-03T02:03:22.261Z,1.13
2017-10-03T02:05:48.872Z,1.13
2017-10-03T02:08:15.463Z,1.33
2017-10-03T02:10:42.073Z,1.03
2017-10-03T02:13:08.692Z,1.00
2017-10-03T02:15:35.294Z,1.20
2017-10-03T02:18:01.941Z,1.40
2017-10-03T02:20:28.533Z,1.00
2017-10-03T02:22:55.130Z,1.17
2017-10-03T02:25:21.756Z,1.10
2017-10-03T02:27:48.352Z,1.27
2017-10-03T02:30:14.973Z,1.70
2017-10-03T02:32:41.575Z,1.40
2017-10-03T02:35:08.160Z,1.17
2017-10-03T02:37:34.777Z,1.40
2017-10-03T02:40:01.424Z,1.10
2017-10-03T02:42:28.000Z,1.50
2017-10-03T02:44:54.600Z,1.30
2017-10-03T02:47:21.212Z,1.50
2017-10-03T02:49:47.801Z,1.20
2017-10-03T02:52:14.421Z,1.60
2017-10-03T02:54:41.020Z,1.50
2017-10-03T02:57:07.640Z,0.80
2017-10-03T02:59:34.253Z,0.67
2017-10-03T03:02:00.852Z,0.60
2017-10-03T03:04:27.484Z,0.50
2017-10-03T03:06:54.084Z,0.70
2017-10-03T03:09:20.672Z,0.83
2017-10-03T03:11:47.288Z,0.60
2017-10-03T03:14:13.884Z,0.83
2017-10-03T03:16:40.500Z,0.97
2017-10-03T03:19:07.098Z,0.87
2017-10-03T03:21:33.689Z,0.80
2017-10-03T03:24:00.292Z,0.73
2017-10-03T03:26:26.936Z,1.00
2017-10-03T03:28:53.540Z,0.87
2017-10-03T03:31:20.133Z,0.90
2017-10-03T03:33:46.749Z,1.23
2017-10-03T03:36:13.365Z,1.10
2017-10-03T03:38:39.985Z,1.30
2017-10-03T03:41:06.592Z,1.80
2017-10-03T03:43:33.204Z,1.73
2017-10-03T03:45:59.828Z,2.00
2017-10-03T03:48:26.778Z,2.10
2017-10-03T03:50:53.380Z,1.97
2017-10-03T03:53:20.006Z,2.40
2017-10-03T03:55:46.616Z,2.47
2017-10-03T03:58:13.228Z,2.57
2017-10-03T04:00:39.883Z,2.83
2017-10-03T04:03:06.472Z,2.70
2017-10-03T04:05:33.068Z,2.37
2017-10-03T04:07:59.685Z,1.87
2017-10-03T04:10:26.312Z,1.90
2017-10-03T04:12:52.927Z,2.20
2017-10-03T04:15:19.530Z,2.03
2017-10-03T04:17:46.141Z,1.60
2017-10-03T04:20:12.754Z,1.47
2017-10-03T04:22:40.148Z,1.47
2017-10-03T04:25:06.748Z,1.20
2017-10-03T04:27:33.341Z,1.00
2017-10-03T04:29:59.964Z,1.13
2017-10-03T04:32:26.569Z,1.10
2017-10-03T04:34:53.157Z,0.90
2017-10-03T04:37:19.752Z,1.10
2017-10-03T04:39:46.371Z,1.03
2017-10-03T04:42:12.972Z,1.23
2017-10-03T04:44:39.579Z,1.00
2017-10-03T04:47:06.181Z,1.00
2017-10-03T04:49:32.797Z,1.23
2017-10-03T04:51:59.394Z,0.90
2017-10-03T04:54:25.999Z,1.00
2017-10-03T04:56:52.612Z,0.90
2017-10-03T04:59:19.217Z,1.37
2017-10-03T05:01:45.837Z,1.30
2017-10-03T05:04:12.428Z,1.33
2017-10-03T05:06:39.021Z,1.23
2017-10-03T05:09:05.636Z,1.10
2017-10-03T05:11:32.238Z,1.20
2017-10-03T05:13:58.844Z,1.20
2017-10-03T05:16:25.472Z,1.20
2017-10-03T05:18:52.069Z,1.57
2017-10-03T05:21:18.657Z,1.30
2017-10-03T05:23:45.280Z,1.13
2017-10-03T05:26:11.884Z,1.00
2017-10-03T05:28:38.476Z,1.30
2017-10-03T05:31:05.124Z,1.50
2017-10-03T05:33:31.725Z,1.40
2017-10-03T05:35:58.318Z,1.33
2017-10-03T05:38:24.978Z,1.80
2017-10-03T05:40:51.580Z,1.53
2017-10-03T05:43:18.170Z,1.07
2017-10-03T05:45:44.791Z,1.77
2017-10-03T05:48:11.390Z,1.70
2017-10-03T05:50:38.008Z,1.67
2017-10-03T05:53:04.625Z,1.33
2017-10-03T05:55:31.236Z,1.50
2017-10-03T05:57:57.849Z,1.30
2017-10-03T06:00:24.452Z,1.20
2017-10-03T06:02:51.092Z,1.33
2017-10-03T06:05:17.683Z,1.50
2017-10-03T06:07:44.272Z,1.40
2017-10-03T06:10:10.889Z,1.50
2017-10-03T06:12:37.505Z,1.20
2017-10-03T06:15:04.125Z,1.43
2017-10-03T06:17:30.721Z,2.40
2017-10-03T06:19:57.346Z,1.10
2017-10-03T06:22:23.972Z,1.20
2017-10-03T06:24:50.569Z,1.20
2017-10-03T06:27:17.188Z,1.10
2017-10-03T06:29:43.780Z,1.43
2017-10-03T06:32:10.412Z,1.23
2017-10-03T06:34:37.036Z,1.50
2017-10-03T06:37:03.633Z,1.77
2017-10-03T06:39:30.260Z,1.60
2017-10-03T06:41:56.866Z,8.47
2017-10-03T06:44:23.511Z,4.70
2017-10-03T06:46:50.106Z,2.50
2017-10-03T06:49:16.709Z,1.53
2017-10-03T06:51:43.328Z,1.20
2017-10-03T06:54:09.960Z,1.10
2017-10-03T06:56:36.578Z,1.50
2017-10-03T06:59:03.236Z,1.00
2017-10-03T07:01:29.832Z,1.07
2017-10-03T07:03:56.433Z,1.33
2017-10-03T07:06:23.096Z,1.30
2017-10-03T07:08:49.689Z,1.20
2017-10-03T07:11:16.284Z,1.20
2017-10-03T07:13:42.906Z,1.03
2017-10-03T07:16:09.534Z,1.07
2017-10-03T07:18:36.142Z,0.90
2017-10-03T07:21:02.739Z,0.80
2017-10-03T07:23:29.365Z,0.60
2017-10-03T07:25:55.980Z,0.80
2017-10-03T07:28:22.589Z,0.77
2017-10-03T07:30:49.214Z,0.60
2017-10-03T07:33:15.804Z,0.50
2017-10-03T07:35:42.423Z,0.47
2017-10-03T07:38:09.050Z,0.70
2017-10-03T07:40:35.676Z,0.40
2017-10-03T07:43:02.311Z,0.40
2017-10-03T07:45:28.912Z,0.40
2017-10-03T07:47:55.529Z,0.80
2017-10-03T07:50:22.138Z,1.10
2017-10-03T07:52:48.736Z,0.63
2017-10-03T07:55:15.362Z,0.53
2017-10-03T07:57:41.961Z,0.50
2017-10-03T08:00:08.601Z,0.30
2017-10-03T08:02:35.200Z,0.50
2017-10-03T08:05:01.799Z,0.70
2017-10-03T08:07:28.412Z,0.30
2017-10-03T08:09:55.040Z,0.70
2017-10-03T08:12:21.648Z,0.30
2017-10-03T08:14:48.240Z,0.50
2017-10-03T08:17:14.849Z,0.47
2017-10-03T08:19:41.494Z,0.50
2017-10-03T08:22:08.096Z,0.50
2017-10-03T08:24:34.688Z,0.50
2017-10-03T08:27:01.304Z,0.50
2017-10-03T08:29:27.907Z,0.60
2017-10-03T08:31:54.529Z,0.60
2017-10-03T08:34:21.158Z,0.57
2017-10-03T08:36:47.745Z,1.10
2017-10-03T08:39:14.365Z,0.77
2017-10-03T08:41:41.000Z,0.60
2017-10-03T08:44:07.626Z,0.53
2017-10-03T08:46:34.227Z,0.70
2017-10-03T08:49:00.852Z,0.70
2017-10-03T08:51:27.492Z,0.97
2017-10-03T08:53:54.093Z,0.83
2017-10-03T08:56:20.727Z,1.07
2017-10-03T08:58:47.303Z,0.97
2017-10-03T09:01:13.924Z,1.20
2017-10-03T09:03:40.530Z,0.90
2017-10-03T09:06:07.131Z,1.00
2017-10-03T09:08:33.744Z,0.77
2017-10-03T09:11:00.338Z,1.10
2017-10-03T09:13:26.959Z,1.20
2017-10-03T09:15:53.552Z,1.30
2017-10-03T09:18:20.185Z,1.30
2017-10-03T09:20:46.797Z,1.10
2017-10-03T09:23:13.398Z,1.17
2017-10-03T09:25:40.446Z,1.43
2017-10-03T09:28:07.031Z,1.07
2017-10-03T09:30:33.660Z,1.10
2017-10-03T09:33:00.267Z,1.83
2017-10-03T09:35:27.438Z,1.70
2017-10-03T09:37:55.770Z,2.90
2017-10-03T09:40:22.367Z,1.50
2017-10-03T09:42:49.011Z,1.47
2017-10-03T09:45:15.637Z,1.33
2017-10-03T09:47:42.296Z,1.77
2017-10-03T09:50:08.928Z,1.47
2017-10-03T09:52:35.568Z,1.30
2017-10-03T09:55:02.206Z,1.40
2017-10-03T09:57:28.831Z,2.37
2017-10-03T09:59:55.465Z,1.80
2017-10-03T10:02:22.060Z,1.60
2017-10-03T10:04:48.698Z,1.70
2017-10-03T10:07:15.300Z,3.20
2017-10-03T10:09:41.901Z,1.73
2017-10-03T10:12:08.526Z,2.13
2017-10-03T10:14:35.172Z,1.80
2017-10-03T10:17:02.304Z,1.37
2017-10-03T10:19:28.899Z,1.70
2017-10-03T10:21:55.520Z,1.50
2017-10-03T10:24:22.140Z,1.33
2017-10-03T10:26:48.752Z,1.37
2017-10-03T10:29:15.365Z,2.07
2017-10-03T10:31:41.970Z,1.50
2017-10-03T10:34:08.580Z,1.30
2017-10-03T10:36:35.209Z,2.10
2017-10-03T10:39:01.810Z,1.70
2017-10-03T10:41:28.403Z,2.40
2017-10-03T10:43:55.021Z,2.10
2017-10-03T10:46:21.639Z,2.57
2017-10-03T10:48:48.252Z,2.10
2017-10-03T10:51:14.876Z,1.80
2017-10-03T10:53:41.492Z,1.60
2017-10-03T10:56:08.087Z,1.50
2017-10-03T10:58:34.701Z,1.60
2017-10-03T11:01:01.294Z,1.73
2017-10-03T11:03:27.904Z,1.50
2017-10-03T11:05:54.525Z,2.20
2017-10-03T11:08:21.148Z,2.10
2017-10-03T11:10:47.866Z,2.07
2017-10-03T11:13:14.460Z,1.50
2017-10-03T11:15:41.075Z,1.80
2017-10-03T11:18:07.697Z,1.67
2017-10-03T11:20:34.294Z,1.40
2017-10-03T11:23:06.882Z,1.40
2017-10-03T11:25:33.464Z,2.07
2017-10-03T11:28:00.072Z,2.00
2017-10-03T11:30:26.684Z,1.87
2017-10-03T11:32:53.288Z,1.80
2017-10-03T11:35:19.900Z,1.50
2017-10-03T11:37:46.519Z,2.00
2017-10-03T11:40:13.142Z,1.70
2017-10-03T11:42:39.735Z,1.93
2017-10-03T11:45:06.344Z,1.80
2017-10-03T11:47:32.947Z,1.93
2017-10-03T11:49:59.560Z,1.60
2017-10-03T11:52:26.148Z,1.60
2017-10-03T11:54:52.869Z,1.53
2017-10-03T11:57:19.490Z,1.97
2017-10-03T11:59:46.105Z,1.90
2017-10-03T12:02:12.722Z,1.60
2017-10-03T12:04:39.409Z,1.70
2017-10-03T12:07:06.004Z,1.70
2017-10-03T12:09:32.602Z,1.47
2017-10-03T12:11:59.213Z,1.70
2017-10-03T12:14:25.821Z,1.57
2017-10-03T12:16:52.420Z,1.40
2017-10-03T12:19:19.058Z,1.80
2017-10-03T12:21:45.656Z,1.63
2017-10-03T12:24:12.296Z,1.70
2017-10-03T12:26:38.896Z,1.47
2017-10-03T12:29:05.493Z,1.50
2017-10-03T12:31:32.114Z,1.33
2017-10-03T12:33:58.766Z,1.47
2017-10-03T12:36:25.358Z,2.00
2017-10-03T12:38:51.977Z,1.40
2017-10-03T12:41:18.611Z,1.27
2017-10-03T12:43:45.222Z,1.60
2017-10-03T12:46:12.637Z,1.80
2017-10-03T12:48:39.241Z,1.30
2017-10-03T12:51:05.877Z,1.73
2017-10-03T12:53:32.477Z,1.00
2017-10-03T12:55:59.092Z,1.70
2017-10-03T12:58:25.691Z,1.70
2017-10-03T13:00:52.342Z,1.50
2017-10-03T13:03:18.941Z,1.10
2017-10-03T13:05:45.542Z,1.57
2017-10-03T13:08:12.192Z,1.67
2017-10-03T13:10:38.790Z,1.53
2017-10-03T13:13:05.412Z,1.33
2017-10-03T13:15:32.048Z,1.40
2017-10-03T13:17:58.649Z,1.87
2017-10-03T13:20:25.262Z,1.07
2017-10-03T13:22:51.852Z,1.60
2017-10-03T13:25:18.470Z,1.60
2017-10-03T13:27:45.105Z,1.30
2017-10-03T13:30:11.717Z,1.60
2017-10-03T13:32:38.316Z,1.60
2017-10-03T13:35:04.945Z,1.20
2017-10-03T13:37:31.541Z,1.60
2017-10-03T13:39:58.137Z,1.20
2017-10-03T13:42:24.755Z,1.40
2017-10-03T13:44:51.348Z,1.50
2017-10-03T13:47:17.972Z,1.10
2017-10-03T13:49:44.569Z,1.20
2017-10-03T13:52:11.165Z,1.23
2017-10-03T13:54:37.777Z,1.23
2017-10-03T13:57:04.389Z,1.50
2017-10-03T13:59:30.999Z,1.63
2017-10-03T14:01:57.585Z,1.20
2017-10-03T14:04:24.223Z,1.30
2017-10-03T14:06:50.842Z,1.70
2017-10-03T14:09:17.446Z,1.53
2017-10-03T14:11:44.064Z,1.73
2017-10-03T14:14:10.661Z,1.30
2017-10-03T14:16:37.289Z,1.30
2017-10-03T14:19:04.584Z,1.13
2017-10-03T14:21:31.177Z,1.40
2017-10-03T14:23:57.810Z,1.80
2017-10-03T14:26:24.409Z,1.50
2017-10-03T14:28:51.032Z,1.70
2017-10-03T14:31:17.624Z,2.00
2017-10-03T14:33:44.245Z,1.70
2017-10-03T14:36:10.860Z,1.40
2017-10-03T14:38:37.462Z,1.50
2017-10-03T14:41:04.080Z,1.70
2017-10-03T14:43:30.668Z,1.70
2017-10-03T14:45:57.282Z,1.30
2017-10-03T14:48:23.878Z,1.40
2017-10-03T14:50:50.492Z,1.77
2017-10-03T14:53:17.111Z,1.20
2017-10-03T14:55:43.737Z,1.67
2017-10-03T14:58:10.332Z,1.70
2017-10-03T15:00:36.935Z,1.17
2017-10-03T15:03:03.561Z,3.00
2017-10-03T15:05:30.149Z,1.70
2017-10-03T15:07:56.788Z,2.20
2017-10-03T15:10:23.377Z,1.90
2017-10-03T15:12:49.973Z,1.73
2017-10-03T15:15:16.586Z,1.83
2017-10-03T15:17:43.180Z,1.73
2017-10-03T15:20:09.795Z,2.27
2017-10-03T15:22:36.384Z,1.53
2017-10-03T15:25:03.004Z,1.80
2017-10-03T15:27:29.600Z,1.77
2017-10-03T15:29:56.225Z,1.90
2017-10-03T15:32:22.819Z,1.53
2017-10-03T15:34:49.444Z,1.77
2017-10-03T15:37:16.150Z,2.27
2017-10-03T15:39:42.738Z,2.10
2017-10-03T15:42:09.356Z,2.20
2017-10-03T15:44:35.978Z,2.07
2017-10-03T15:47:02.580Z,1.90
2017-10-03T15:49:29.222Z,2.20
2017-10-03T15:51:56.045Z,2.10
2017-10-03T15:54:22.724Z,1.90
2017-10-03T15:56:49.335Z,1.73
2017-10-03T15:59:15.948Z,2.40
2017-10-03T16:01:42.545Z,2.30
2017-10-03T16:04:09.156Z,1.93
2017-10-03T16:06:35.749Z,2.60
2017-10-03T16:09:03.228Z,2.10
2017-10-03T16:11:29.816Z,2.13
2017-10-03T16:13:56.419Z,2.77
2017-10-03T16:16:23.355Z,2.77
2017-10-03T16:18:49.951Z,2.37
2017-10-03T16:21:16.545Z,2.47
2017-10-03T16:23:43.157Z,2.17
2017-10-03T16:26:09.785Z,2.73
2017-10-03T16:28:36.414Z,2.43
2017-10-03T16:31:03.001Z,2.70
2017-10-03T16:33:29.625Z,2.33
2017-10-03T16:35:56.271Z,2.90
2017-10-03T16:38:22.849Z,2.50
2017-10-03T16:40:49.447Z,1.93
2017-10-03T16:43:16.074Z,2.47
2017-10-03T16:45:42.661Z,2.30
2017-10-03T16:48:09.261Z,2.40
2017-10-03T16:50:35.886Z,2.47
2017-10-03T16:53:02.467Z,2.70
2017-10-03T16:55:29.080Z,2.40
2017-10-03T16:57:55.714Z,2.50
2017-10-03T17:00:22.328Z,2.33
2017-10-03T17:02:48.944Z,2.53
2017-10-03T17:05:15.548Z,2.27
2017-10-03T17:07:43.000Z,3.20
2017-10-03T17:10:09.620Z,3.20
2017-10-03T17:12:36.220Z,3.60
2017-10-03T17:15:02.845Z,2.83
2017-10-03T17:17:29.431Z,3.10
2017-10-03T17:19:56.052Z,2.50
2017-10-03T17:22:22.644Z,3.07
2017-10-03T17:24:49.256Z,3.00
2017-10-03T17:27:15.865Z,3.50
2017-10-03T17:29:42.456Z,3.67
2017-10-03T17:32:09.080Z,3.63
2017-10-03T17:34:35.683Z,3.43
2017-10-03T17:37:02.284Z,3.83
2017-10-03T17:39:28.910Z,4.03
2017-10-03T17:41:55.512Z,3.83
2017-10-03T17:44:22.172Z,3.20
2017-10-03T17:46:49.710Z,3.73
2017-10-03T17:49:16.436Z,4.37
2017-10-03T17:51:43.169Z,3.97
2017-10-03T17:54:09.995Z,4.53
2017-10-03T17:56:36.673Z,4.10
2017-10-03T17:59:03.908Z,4.13
2017-10-03T18:01:31.349Z,3.87
2017-10-03T18:04:01.258Z,3.57
2017-10-03T18:06:27.999Z,4.27
2017-10-03T18:08:54.796Z,3.83
2017-10-03T18:11:21.704Z,3.67
2017-10-03T18:13:50.309Z,3.70
2017-10-03T18:16:16.915Z,4.60
2017-10-03T18:18:43.535Z,4.00
2017-10-03T18:21:10.322Z,3.70
2017-10-03T18:23:37.730Z,3.23
2017-10-03T18:26:05.232Z,3.80
2017-10-03T18:28:33.751Z,3.77
2017-10-03T18:31:01.225Z,3.60
2017-10-03T18:33:27.841Z,3.70
2017-10-03T18:35:54.438Z,4.10
2017-10-03T18:38:21.065Z,5.10
2017-10-03T18:40:47.676Z,3.93
2017-10-03T18:43:14.277Z,4.63
2017-10-03T18:45:40.912Z,3.83
2017-10-03T18:48:07.536Z,4.10
2017-10-03T18:50:34.134Z,3.37
2017-10-03T18:53:00.720Z,3.50
2017-10-03T18:55:27.351Z,3.37
2017-10-03T18:57:53.952Z,3.23
2017-10-03T19:00:20.556Z,4.33
2017-10-03T19:02:47.175Z,4.10
2017-10-03T19:05:13.764Z,5.00
2017-10-03T19:07:40.376Z,5.27
2017-10-03T19:10:07.011Z,4.53
2017-10-03T19:12:33.624Z,3.80
2017-10-03T19:15:00.670Z,4.60
2017-10-03T19:17:27.276Z,4.30
2017-10-03T19:19:53.866Z,4.40
2017-10-03T19:22:20.480Z,3.70
2017-10-03T19:24:47.082Z,4.07
2017-10-03T19:27:13.700Z,3.60
2017-10-03T19:29:40.320Z,3.27
2017-10-03T19:32:06.936Z,3.90
2017-10-03T19:34:33.534Z,3.57
2017-10-03T19:37:00.148Z,3.40
2017-10-03T19:39:26.740Z,3.23
2017-10-03T19:41:53.363Z,3.20
2017-10-03T19:44:19.960Z,3.30
2017-10-03T19:46:46.581Z,3.27
2017-10-03T19:49:13.182Z,3.50
2017-10-03T19:51:39.804Z,3.37
2017-10-03T19:54:06.404Z,3.40
2017-10-03T19:56:33.021Z,3.93
2017-10-03T19:58:59.637Z,3.47
2017-10-03T20:01:26.261Z,3.43
2017-10-03T20:03:52.888Z,3.93
2017-10-03T20:06:19.520Z,3.87
2017-10-03T20:08:46.128Z,4.10
2017-10-03T20:11:12.728Z,3.80
2017-10-03T20:13:39.354Z,4.43
2017-10-03T20:16:05.981Z,3.77
2017-10-03T20:18:32.590Z,3.87
2017-10-03T20:20:59.209Z,3.93
2017-10-03T20:23:25.809Z,3.47
2017-10-03T20:25:52.438Z,3.77
2017-10-03T20:28:19.066Z,3.70
2017-10-03T20:30:45.664Z,4.07
2017-10-03T20:33:12.272Z,3.60
2017-10-03T20:35:38.885Z,3.27
2017-10-03T20:38:05.488Z,3.63
2017-10-03T20:40:32.116Z,3.30
2017-10-03T20:42:58.728Z,3.90
2017-10-03T20:45:25.342Z,4.00
2017-10-03T20:47:51.966Z,3.60
2017-10-03T20:50:18.568Z,3.83
2017-10-03T20:52:45.180Z,3.67
2017-10-03T20:55:11.914Z,3.50
2017-10-03T20:57:38.513Z,3.23
2017-10-03T21:00:05.112Z,2.97
2017-10-03T21:02:31.749Z,3.90
2017-10-03T21:04:58.352Z,3.50
2017-10-03T21:07:24.952Z,3.50
2017-10-03T21:09:51.630Z,3.70
2017-10-03T21:12:18.228Z,3.20
2017-10-03T21:14:45.210Z,3.77
2017-10-03T21:17:11.802Z,3.87
2017-10-03T21:19:38.396Z,3.17
2017-10-03T21:22:05.017Z,3.40
2017-10-03T21:24:31.624Z,3.73
2017-10-03T21:26:58.252Z,3.80
2017-10-03T21:29:24.848Z,3.30
2017-10-03T21:31:51.444Z,4.00
2017-10-03T21:34:18.063Z,3.50
2017-10-03T21:36:44.658Z,3.87
2017-10-03T21:39:11.267Z,3.40
2017-10-03T21:41:43.678Z,3.97
2017-10-03T21:44:10.366Z,3.70
2017-10-03T21:46:36.950Z,4.40
2017-10-03T21:49:03.577Z,4.53
2017-10-03T21:51:30.174Z,3.70
2017-10-03T21:53:56.765Z,4.23
2017-10-03T21:56:23.385Z,4.23
2017-10-03T21:58:49.975Z,4.00
2017-10-03T22:01:16.579Z,4.13
2017-10-03T22:03:43.198Z,4.20
2017-10-03T22:06:09.792Z,4.30
2017-10-03T22:08:36.410Z,4.43
2017-10-03T22:11:03.006Z,3.40
2017-10-03T22:13:29.608Z,4.13
2017-10-03T22:15:56.240Z,4.10
2017-10-03T22:18:22.841Z,4.00
2017-10-03T22:20:49.427Z,3.30
2017-10-03T22:23:16.125Z,4.00
2017-10-03T22:25:42.721Z,3.90
2017-10-03T22:28:09.420Z,4.40
2017-10-03T22:30:36.037Z,4.17
2017-10-03T22:33:02.629Z,3.50
2017-10-03T22:35:29.258Z,3.90
2017-10-03T22:37:55.853Z,4.00
2017-10-03T22:40:22.445Z,4.07
2017-10-03T22:42:49.061Z,4.10
2017-10-03T22:45:15.684Z,4.40
2017-10-03T22:47:42.281Z,3.47
2017-10-03T22:50:08.872Z,4.27
2017-10-03T22:52:35.488Z,3.73
2017-10-03T22:55:02.088Z,5.03
2017-10-03T22:57:28.721Z,3.93
2017-10-03T22:59:55.312Z,4.13
2017-10-03T23:02:21.913Z,5.07
2017-10-03T23:04:48.525Z,4.10
2017-10-03T23:07:15.133Z,4.10
2017-10-03T23:09:41.740Z,3.40
2017-10-03T23:12:08.337Z,3.70
2017-10-03T23:14:34.961Z,3.97
2017-10-03T23:17:01.562Z,3.40
2017-10-03T23:19:28.157Z,3.67
2017-10-03T23:21:54.784Z,3.30
2017-10-03T23:24:21.385Z,3.70
2017-10-03T23:26:47.979Z,3.80
2017-10-03T23:29:14.592Z,3.20
2017-10-03T23:31:41.191Z,3.30
2017-10-03T23:34:07.818Z,3.53
2017-10-03T23:36:34.409Z,3.60
2017-10-03T23:39:01.012Z,4.30
2017-10-03T23:41:27.612Z,4.00
2017-10-03T23:43:54.233Z,3.30
2017-10-03T23:46:20.842Z,3.50
2017-10-03T23:48:47.542Z,4.10
2017-10-03T23:51:14.140Z,3.70
2017-10-03T23:53:40.732Z,3.90
2017-10-03T23:56:07.366Z,3.70
2017-10-03T23:58:33.955Z,4.60
